This is the latest recevied weather packets stored in our database for station/object SV1TQE-1. If no packets are shown the sender has not sent any weather packets the latest 10 day(s).
| Time | Temp. | Humidity | Pressure | Rain* | Wind** | Luminosity | Snow |
|---|---|---|---|---|---|---|---|
| 1787677655 | 33.33° C | 37% | 1018.4 hPa | - | - | - | - |
| 1787676755 | 33.89° C | 41% | 1018.3 hPa | - | - | - | - |
| 1787675855 | 33.33° C | 41% | 1017.9 hPa | - | - | - | - |
| 1787674955 | 33.33° C | 45% | 1017.9 hPa | - | - | - | - |
| 1787674064 | 35° C | 42% | 1017.7 hPa | - | - | - | - |
| 1787673153 | 36.67° C | 32% | 1017.6 hPa | - | - | - | - |
| 1787672253 | 37.78° C | 30% | 1017.6 hPa | - | - | - | - |
| 1787671353 | 38.89° C | 30% | 1017.6 hPa | - | - | - | - |
| 1787670453 | 40.56° C | 31% | 1017.4 hPa | - | - | - | - |
| 1787669553 | 41.11° C | 30% | 1017.4 hPa | - | - | - | - |
| 1787668653 | 40.56° C | 31% | 1017.3 hPa | - | - | - | - |
| 1787667753 | 41.67° C | 30% | 1017.4 hPa | - | - | - | - |
| 1787666853 | 41.67° C | 29% | 1017.5 hPa | - | - | - | - |
| 1787665052 | 41.67° C | 30% | 1017.8 hPa | - | - | - | - |
| 1787664155 | 41.67° C | 30% | 1017.9 hPa | - | - | - | - |
| 1787663252 | 40.56° C | 31% | 1018 hPa | - | - | - | - |
| 1787662351 | 41.11° C | 29% | 1018.2 hPa | - | - | - | - |
| 1787661428 | 42.22° C | 27% | 1017.5 hPa | - | - | - | - |
| 1787659740 | 41.67° C | 28% | 1018.4 hPa | - | - | - | - |
| 1787658826 | 42.22° C | 27% | 1018.3 hPa | - | - | - | - |
| 1787657907 | 42.22° C | 27% | 1018.6 hPa | - | - | - | - |
| 1787656989 | 41.67° C | 28% | 1018.9 hPa | - | - | - | - |
| 1787656070 | 41.67° C | 27% | 1019 hPa | - | - | - | - |
| 1787655185 | 40.56° C | 28% | 1019.1 hPa | - | - | - | - |
| 1787654255 | 40° C | 28% | 1019.2 hPa | - | - | - | - |
* Rain since midnight (hover to see other rain measurements)
** Current wind speed in m/s (hover to see current wind gust speed)